Normand Flipper — 9V6929 — position and weather

sailwx.info

Track history (hours):
 
Tides and Currents Weather Stations Pressure Air Temp Water Temp Dewpoint Dewpoint Depression Visibility Wind Speed Wind Dir Waves Ship Positions

Normand Flipper

Last reported at 2017-Feb-21 01:21 UTC. Time now 2017-Feb-24 02:10 UTC.
Position N 57°37' W 001°42'.

Length 89 m; draft 4.5 m.

Type: Other ship. MMSI: 566522000.

Date/timePositionNaut miles runAvg speedWind from/ knotsBaromVisibWave heightAir tempDewpointWater temp
2017-Feb-21 01:21N 57°37' W 001°42'911.2
2017-Feb-21 00:34N 57°28' W 001°42'2310.4
2017-Feb-20 22:18N 57°08' W 002°04'0 0.4
2017-Feb-20 21:32N 57°08' W 002°05'0 0.0
2017-Feb-20 20:32N 57°08' W 002°05'0 0.0
2017-Feb-20 19:32N 57°08' W 002°05'0 0.0
2017-Feb-20 18:32N 57°08' W 002°05'0 0.0
2017-Feb-20 17:32N 57°08' W 002°05'0 0.0
2017-Feb-20 16:32N 57°08' W 002°05'0 0.0
2017-Feb-20 15:32N 57°08' W 002°05'0 0.0
2017-Feb-20 14:32N 57°08' W 002°05'0 0.0
2017-Feb-20 13:32N 57°08' W 002°05'0 0.0
2017-Feb-20 12:33N 57°08' W 002°05'3 3.3
2017-Feb-20 11:33N 57°10' W 001°59'1111.3
2017-Feb-20 10:34N 57°20' W 001°49'1211.8
2017-Feb-20 09:34N 57°30' W 001°39'1212.1
2017-Feb-20 08:34N 57°42' W 001°42'1 0.1
2017-Feb-19 22:33N 57°43' W 001°41'1110.5
2017-Feb-19 21:34N 57°33' W 001°40'10 9.5
2017-Feb-19 20:33N 57°24' W 001°45'19 9.1
2017-Feb-19 18:30N 57°08' W 002°05'0 0.0
2017-Feb-19 17:33N 57°08' W 002°05'0 0.0
2017-Feb-19 16:18N 57°08' W 002°05'0 0.0
2017-Feb-19 10:20N 57°08' W 002°05'0 0.0
2017-Feb-19 08:15N 57°08' W 002°05'0 0.0
2017-Feb-19 02:30N 57°08' W 002°05'0 0.0
2017-Feb-19 01:14N 57°08' W 002°05'10 5.3
2017-Feb-18 23:24N 57°16' W 001°53'8 9.5
2017-Feb-18 22:33N 57°23' W 001°46'9 9.3
2017-Feb-18 21:33N 57°32' W 001°40'1010.0
2017-Feb-18 20:33N 57°41' W 001°42'4 0.1
2017-Feb-16 20:33N 57°45' W 001°42'1010.5
2017-Feb-16 19:33N 57°35' W 001°42'1010.4
2017-Feb-16 18:33N 57°25' W 001°42'1110.3
2017-Feb-16 17:30N 57°16' W 001°54'9 9.6
2017-Feb-16 16:33N 57°09' W 002°04'0 0.4
2017-Feb-16 15:33N 57°08' W 002°05'0 0.0
2017-Feb-16 14:33N 57°08' W 002°05'0 0.0
2017-Feb-16 13:33N 57°08' W 002°05'0 0.0
2017-Feb-16 12:30N 57°08' W 002°05'0 0.0
2017-Feb-16 11:33N 57°08' W 002°05'0 0.0
2017-Feb-16 10:33N 57°08' W 002°05'0 0.0
2017-Feb-16 09:30N 57°08' W 002°05'0 0.0
2017-Feb-16 08:33N 57°08' W 002°05'0 0.0
2017-Feb-16 07:33N 57°08' W 002°05'0 0.0
2017-Feb-16 06:33N 57°08' W 002°05'0 0.0
2017-Feb-16 05:33N 57°08' W 002°05'0 0.0
2017-Feb-16 04:33N 57°08' W 002°05'0 0.0
2017-Feb-16 03:33N 57°08' W 002°05'0 0.0
2017-Feb-16 02:33N 57°08' W 002°05'0 0.0
2017-Feb-16 01:33N 57°08' W 002°05'0 0.0
2017-Feb-16 00:33N 57°08' W 002°05'0 0.0
2017-Feb-15 23:33N 57°08' W 002°05'0 0.0
2017-Feb-15 22:33N 57°08' W 002°05'0 0.0
2017-Feb-15 21:33N 57°08' W 002°05'0 0.0
2017-Feb-15 20:30N 57°08' W 002°05'0 0.0
2017-Feb-15 19:33N 57°08' W 002°05'0 0.0
2017-Feb-15 18:27N 57°08' W 002°05'0 0.0
2017-Feb-15 17:33N 57°08' W 002°05'0 0.0
2017-Feb-15 16:33N 57°08' W 002°05'2 1.6
2017-Feb-15 15:34N 57°09' W 002°02'7 6.8
2017-Feb-15 14:34N 57°15' W 001°55'1312.7
2017-Feb-15 13:34N 57°25' W 001°43'1211.7
2017-Feb-15 12:34N 57°37' W 001°41'1211.5
2017-Feb-15 11:32N 57°49' W 001°42'  
Track history (hours):
 
Tides and Currents Weather Stations Pressure Air Temp Water Temp Dewpoint Dewpoint Depression Visibility Wind Speed Wind Dir Waves Ship Positions

Normand Flipper

Last reported at 2017-Feb-21 01:21 UTC. Time now 2017-Feb-24 02:10 UTC.
Position N 57°37' W 001°42'.

Length 89 m; draft 4.5 m.

Type: Other ship. MMSI: 566522000.

Date/timePositionNaut miles runAvg speedWind from/ knotsBaromVisibWave heightAir tempDewpointWater temp
2017-Feb-21 01:21N 57°37' W 001°42'911.2
2017-Feb-21 00:34N 57°28' W 001°42'2310.4
2017-Feb-20 22:18N 57°08' W 002°04'0 0.4
2017-Feb-20 21:32N 57°08' W 002°05'0 0.0
2017-Feb-20 20:32N 57°08' W 002°05'0 0.0
2017-Feb-20 19:32N 57°08' W 002°05'0 0.0
2017-Feb-20 18:32N 57°08' W 002°05'0 0.0
2017-Feb-20 17:32N 57°08' W 002°05'0 0.0
2017-Feb-20 16:32N 57°08' W 002°05'0 0.0
2017-Feb-20 15:32N 57°08' W 002°05'0 0.0
2017-Feb-20 14:32N 57°08' W 002°05'0 0.0
2017-Feb-20 13:32N 57°08' W 002°05'0 0.0
2017-Feb-20 12:33N 57°08' W 002°05'3 3.3
2017-Feb-20 11:33N 57°10' W 001°59'1111.3
2017-Feb-20 10:34N 57°20' W 001°49'1211.8
2017-Feb-20 09:34N 57°30' W 001°39'1212.1
2017-Feb-20 08:34N 57°42' W 001°42'1 0.1
2017-Feb-19 22:33N 57°43' W 001°41'1110.5
2017-Feb-19 21:34N 57°33' W 001°40'10 9.5
2017-Feb-19 20:33N 57°24' W 001°45'19 9.1
2017-Feb-19 18:30N 57°08' W 002°05'0 0.0
2017-Feb-19 17:33N 57°08' W 002°05'0 0.0
2017-Feb-19 16:18N 57°08' W 002°05'0 0.0
2017-Feb-19 10:20N 57°08' W 002°05'0 0.0
2017-Feb-19 08:15N 57°08' W 002°05'0 0.0
2017-Feb-19 02:30N 57°08' W 002°05'0 0.0
2017-Feb-19 01:14N 57°08' W 002°05'10 5.3
2017-Feb-18 23:24N 57°16' W 001°53'8 9.5
2017-Feb-18 22:33N 57°23' W 001°46'9 9.3
2017-Feb-18 21:33N 57°32' W 001°40'1010.0
2017-Feb-18 20:33N 57°41' W 001°42'4 0.1
2017-Feb-16 20:33N 57°45' W 001°42'1010.5
2017-Feb-16 19:33N 57°35' W 001°42'1010.4
2017-Feb-16 18:33N 57°25' W 001°42'1110.3
2017-Feb-16 17:30N 57°16' W 001°54'9 9.6
2017-Feb-16 16:33N 57°09' W 002°04'0 0.4
2017-Feb-16 15:33N 57°08' W 002°05'0 0.0
2017-Feb-16 14:33N 57°08' W 002°05'0 0.0
2017-Feb-16 13:33N 57°08' W 002°05'0 0.0
2017-Feb-16 12:30N 57°08' W 002°05'0 0.0
2017-Feb-16 11:33N 57°08' W 002°05'0 0.0
2017-Feb-16 10:33N 57°08' W 002°05'0 0.0
2017-Feb-16 09:30N 57°08' W 002°05'0 0.0
2017-Feb-16 08:33N 57°08' W 002°05'0 0.0
2017-Feb-16 07:33N 57°08' W 002°05'0 0.0
2017-Feb-16 06:33N 57°08' W 002°05'0 0.0
2017-Feb-16 05:33N 57°08' W 002°05'0 0.0
2017-Feb-16 04:33N 57°08' W 002°05'0 0.0
2017-Feb-16 03:33N 57°08' W 002°05'0 0.0
2017-Feb-16 02:33N 57°08' W 002°05'0 0.0
2017-Feb-16 01:33N 57°08' W 002°05'0 0.0
2017-Feb-16 00:33N 57°08' W 002°05'0 0.0
2017-Feb-15 23:33N 57°08' W 002°05'0 0.0
2017-Feb-15 22:33N 57°08' W 002°05'0 0.0
2017-Feb-15 21:33N 57°08' W 002°05'0 0.0
2017-Feb-15 20:30N 57°08' W 002°05'0 0.0
2017-Feb-15 19:33N 57°08' W 002°05'0 0.0
2017-Feb-15 18:27N 57°08' W 002°05'0 0.0
2017-Feb-15 17:33N 57°08' W 002°05'0 0.0
2017-Feb-15 16:33N 57°08' W 002°05'2 1.6
2017-Feb-15 15:34N 57°09' W 002°02'7 6.8
2017-Feb-15 14:34N 57°15' W 001°55'1312.7
2017-Feb-15 13:34N 57°25' W 001°43'1211.7
2017-Feb-15 12:34N 57°37' W 001°41'1211.5
2017-Feb-15 11:32N 57°49' W 001°42'  

Dump ship's entire track history